sensor_id;sensor_type;location;lat;lon;timestamp;pressure;altitude;pressure_sealevel;temperature;humidity
51053;BME280;37093;37.716;-122.060;2022-10-24T00:01:22;99819.63;;;22.92;11.58
51053;BME280;37093;37.716;-122.060;2022-10-24T00:03:51;99818.06;;;22.93;11.45
51053;BME280;37093;37.716;-122.060;2022-10-24T00:06:20;99812.60;;;23.08;11.18
51053;BME280;37093;37.716;-122.060;2022-10-24T00:08:48;99816.49;;;23.02;11.65
51053;BME280;37093;37.716;-122.060;2022-10-24T00:11:20;99825.16;;;23.11;11.59
51053;BME280;37093;37.716;-122.060;2022-10-24T00:13:50;99823.65;;;22.97;12.27
51053;BME280;37093;37.716;-122.060;2022-10-24T00:16:19;99819.42;;;23.45;11.00
51053;BME280;37093;37.716;-122.060;2022-10-24T00:18:47;99827.16;;;23.42;11.31
51053;BME280;37093;37.716;-122.060;2022-10-24T00:21:16;99828.93;;;23.19;11.56
51053;BME280;37093;37.716;-122.060;2022-10-24T00:23:44;99841.92;;;22.75;12.23
51053;BME280;37093;37.716;-122.060;2022-10-24T00:26:13;99851.57;;;22.47;11.67
51053;BME280;37093;37.716;-122.060;2022-10-24T00:28:42;99855.72;;;22.46;11.60
51053;BME280;37093;37.716;-122.060;2022-10-24T00:31:13;99865.30;;;22.24;12.24
51053;BME280;37093;37.716;-122.060;2022-10-24T00:33:43;99865.92;;;22.29;11.63
51053;BME280;37093;37.716;-122.060;2022-10-24T00:36:13;99866.36;;;22.70;10.95
51053;BME280;37093;37.716;-122.060;2022-10-24T00:38:42;99873.55;;;22.45;11.22
51053;BME280;37093;37.716;-122.060;2022-10-24T00:41:14;99876.96;;;22.55;11.64
51053;BME280;37093;37.716;-122.060;2022-10-24T00:43:44;99879.67;;;22.53;11.55
51053;BME280;37093;37.716;-122.060;2022-10-24T00:46:12;99881.72;;;22.58;12.10
51053;BME280;37093;37.716;-122.060;2022-10-24T00:48:43;99883.43;;;22.50;11.68
51053;BME280;37093;37.716;-122.060;2022-10-24T00:51:18;99877.77;;;22.51;12.04
51053;BME280;37093;37.716;-122.060;2022-10-24T00:53:50;99869.56;;;23.09;11.37
51053;BME280;37093;37.716;-122.060;2022-10-24T00:56:22;99866.89;;;22.91;12.27
51053;BME280;37093;37.716;-122.060;2022-10-24T00:58:53;99875.56;;;23.35;11.28
51053;BME280;37093;37.716;-122.060;2022-10-24T01:01:25;99882.01;;;22.84;11.52
51053;BME280;37093;37.716;-122.060;2022-10-24T01:03:53;99885.35;;;23.33;11.68
51053;BME280;37093;37.716;-122.060;2022-10-24T01:06:33;99882.09;;;23.08;11.75
51053;BME280;37093;37.716;-122.060;2022-10-24T01:09:13;99877.74;;;22.72;12.16
51053;BME280;37093;37.716;-122.060;2022-10-24T01:11:52;99885.89;;;23.02;12.12
51053;BME280;37093;37.716;-122.060;2022-10-24T01:14:30;99893.91;;;23.21;12.10
51053;BME280;37093;37.716;-122.060;2022-10-24T01:17:06;99904.79;;;22.87;11.82
51053;BME280;37093;37.716;-122.060;2022-10-24T01:20:03;99904.28;;;22.77;12.22
51053;BME280;37093;37.716;-122.060;2022-10-24T01:22:46;99903.76;;;22.96;11.85
51053;BME280;37093;37.716;-122.060;2022-10-24T01:25:22;99904.91;;;22.75;12.10
51053;BME280;37093;37.716;-122.060;2022-10-24T01:28:01;99905.74;;;22.64;11.94
51053;BME280;37093;37.716;-122.060;2022-10-24T01:30:35;99909.36;;;22.26;12.38
51053;BME280;37093;37.716;-122.060;2022-10-24T01:33:13;99915.02;;;22.84;11.84
51053;BME280;37093;37.716;-122.060;2022-10-24T01:35:49;99910.81;;;22.26;12.35
51053;BME280;37093;37.716;-122.060;2022-10-24T01:38:24;99907.84;;;22.36;12.63
51053;BME280;37093;37.716;-122.060;2022-10-24T01:40:58;99909.73;;;22.32;13.03
51053;BME280;37093;37.716;-122.060;2022-10-24T01:43:29;99913.75;;;22.40;12.62
51053;BME280;37093;37.716;-122.060;2022-10-24T01:46:02;99920.99;;;22.55;13.08
51053;BME280;37093;37.716;-122.060;2022-10-24T01:48:34;99923.67;;;22.53;12.62
51053;BME280;37093;37.716;-122.060;2022-10-24T01:51:07;99927.13;;;22.57;13.36
51053;BME280;37093;37.716;-122.060;2022-10-24T01:53:39;99935.16;;;22.60;13.37
51053;BME280;37093;37.716;-122.060;2022-10-24T01:56:09;99942.36;;;22.59;13.24
51053;BME280;37093;37.716;-122.060;2022-10-24T01:58:37;99958.59;;;22.65;13.68
51053;BME280;37093;37.716;-122.060;2022-10-24T02:01:09;99967.51;;;22.49;13.31
51053;BME280;37093;37.716;-122.060;2022-10-24T02:03:42;99970.08;;;21.96;13.47
51053;BME280;37093;37.716;-122.060;2022-10-24T02:06:17;99974.62;;;22.46;13.75
51053;BME280;37093;37.716;-122.060;2022-10-24T02:08:50;99976.33;;;22.25;13.63
51053;BME280;37093;37.716;-122.060;2022-10-24T02:11:20;99986.03;;;22.34;13.80
51053;BME280;37093;37.716;-122.060;2022-10-24T02:13:53;99994.12;;;22.84;13.79
51053;BME280;37093;37.716;-122.060;2022-10-24T02:16:24;100001.49;;;22.36;13.54
51053;BME280;37093;37.716;-122.060;2022-10-24T02:18:54;99999.72;;;22.32;13.54
51053;BME280;37093;37.716;-122.060;2022-10-24T02:21:28;100002.30;;;22.31;14.05
51053;BME280;37093;37.716;-122.060;2022-10-24T02:24:02;100007.62;;;22.26;13.86
51053;BME280;37093;37.716;-122.060;2022-10-24T02:26:36;100011.68;;;22.27;13.79
51053;BME280;37093;37.716;-122.060;2022-10-24T02:29:09;100013.27;;;22.22;14.10
51053;BME280;37093;37.716;-122.060;2022-10-24T02:31:43;100013.33;;;22.18;14.38
51053;BME280;37093;37.716;-122.060;2022-10-24T02:34:17;100020.42;;;22.13;14.39
51053;BME280;37093;37.716;-122.060;2022-10-24T02:36:46;100028.34;;;22.08;14.27
51053;BME280;37093;37.716;-122.060;2022-10-24T02:39:16;100032.61;;;21.96;14.25
51053;BME280;37093;37.716;-122.060;2022-10-24T02:41:45;100038.64;;;21.91;14.20
51053;BME280;37093;37.716;-122.060;2022-10-24T02:44:16;100036.97;;;22.00;13.86
51053;BME280;37093;37.716;-122.060;2022-10-24T02:46:46;100045.41;;;21.80;14.31
51053;BME280;37093;37.716;-122.060;2022-10-24T02:49:17;100047.75;;;22.18;14.06
51053;BME280;37093;37.716;-122.060;2022-10-24T02:51:46;100051.89;;;21.64;14.35
51053;BME280;37093;37.716;-122.060;2022-10-24T02:54:17;100058.55;;;21.86;14.36
51053;BME280;37093;37.716;-122.060;2022-10-24T02:56:49;100060.82;;;21.83;14.23
51053;BME280;37093;37.716;-122.060;2022-10-24T02:59:18;100062.35;;;21.74;14.47
51053;BME280;37093;37.716;-122.060;2022-10-24T03:01:47;100064.86;;;21.87;14.63
51053;BME280;37093;37.716;-122.060;2022-10-24T03:04:15;100064.78;;;21.55;14.83
51053;BME280;37093;37.716;-122.060;2022-10-24T03:06:44;100069.75;;;21.67;14.87
51053;BME280;37093;37.716;-122.060;2022-10-24T03:09:12;100079.52;;;21.63;15.11
51053;BME280;37093;37.716;-122.060;2022-10-24T03:11:41;100084.62;;;21.53;15.20
51053;BME280;37093;37.716;-122.060;2022-10-24T03:14:09;100092.13;;;21.24;15.32
51053;BME280;37093;37.716;-122.060;2022-10-24T03:16:43;100093.99;;;21.22;15.46
51053;BME280;37093;37.716;-122.060;2022-10-24T03:19:12;100098.04;;;21.14;15.46
51053;BME280;37093;37.716;-122.060;2022-10-24T03:21:40;100103.35;;;21.06;15.36
51053;BME280;37093;37.716;-122.060;2022-10-24T03:24:09;100103.31;;;21.22;15.15
51053;BME280;37093;37.716;-122.060;2022-10-24T03:26:37;100103.86;;;20.83;15.09
51053;BME280;37093;37.716;-122.060;2022-10-24T03:29:06;100102.22;;;21.09;15.28
51053;BME280;37093;37.716;-122.060;2022-10-24T03:31:34;100102.37;;;20.83;15.03
51053;BME280;37093;37.716;-122.060;2022-10-24T03:34:03;100104.44;;;21.02;14.75
51053;BME280;37093;37.716;-122.060;2022-10-24T03:36:32;100104.29;;;20.86;15.14
51053;BME280;37093;37.716;-122.060;2022-10-24T03:39:06;100103.44;;;21.06;14.86
51053;BME280;37093;37.716;-122.060;2022-10-24T03:41:34;100101.93;;;21.03;15.03
51053;BME280;37093;37.716;-122.060;2022-10-24T03:44:02;100103.80;;;20.75;15.23
51053;BME280;37093;37.716;-122.060;2022-10-24T03:46:31;100105.87;;;20.99;15.41
51053;BME280;37093;37.716;-122.060;2022-10-24T03:49:00;100103.46;;;21.17;15.75
51053;BME280;37093;37.716;-122.060;2022-10-24T03:51:28;100100.66;;;20.94;15.36
51053;BME280;37093;37.716;-122.060;2022-10-24T03:53:57;100099.83;;;20.83;15.84
51053;BME280;37093;37.716;-122.060;2022-10-24T03:56:26;100106.39;;;20.86;15.50
51053;BME280;37093;37.716;-122.060;2022-10-24T03:58:55;100109.66;;;21.06;15.68
51053;BME280;37093;37.716;-122.060;2022-10-24T04:01:28;100113.57;;;20.78;16.00
51053;BME280;37093;37.716;-122.060;2022-10-24T04:03:57;100107.99;;;20.64;16.23
51053;BME280;37093;37.716;-122.060;2022-10-24T04:06:25;100111.79;;;20.88;16.13
51053;BME280;37093;37.716;-122.060;2022-10-24T04:08:54;100119.80;;;20.47;16.34
51053;BME280;37093;37.716;-122.060;2022-10-24T04:11:23;100119.24;;;20.72;16.38
51053;BME280;37093;37.716;-122.060;2022-10-24T04:13:52;100124.50;;;20.36;16.52
51053;BME280;37093;37.716;-122.060;2022-10-24T04:16:20;100129.23;;;20.61;16.55
51053;BME280;37093;37.716;-122.060;2022-10-24T04:18:50;100139.37;;;20.29;16.77
51053;BME280;37093;37.716;-122.060;2022-10-24T04:21:18;100141.81;;;20.31;16.93
51053;BME280;37093;37.716;-122.060;2022-10-24T04:23:46;100137.78;;;20.51;16.99
51053;BME280;37093;37.716;-122.060;2022-10-24T04:26:20;100135.94;;;20.64;17.48
51053;BME280;37093;37.716;-122.060;2022-10-24T04:28:48;100143.82;;;20.36;17.55
51053;BME280;37093;37.716;-122.060;2022-10-24T04:31:17;100146.17;;;20.26;17.60
51053;BME280;37093;37.716;-122.060;2022-10-24T04:33:46;100149.47;;;20.15;17.70
51053;BME280;37093;37.716;-122.060;2022-10-24T04:36:14;100143.50;;;20.10;17.73
51053;BME280;37093;37.716;-122.060;2022-10-24T04:38:43;100144.55;;;20.19;17.69
51053;BME280;37093;37.716;-122.060;2022-10-24T04:41:11;100146.64;;;19.78;17.85
51053;BME280;37093;37.716;-122.060;2022-10-24T04:43:40;100145.35;;;19.79;18.18
51053;BME280;37093;37.716;-122.060;2022-10-24T04:46:08;100143.51;;;19.85;18.39
51053;BME280;37093;37.716;-122.060;2022-10-24T04:48:37;100152.50;;;19.88;18.81
51053;BME280;37093;37.716;-122.060;2022-10-24T04:51:06;100154.83;;;19.81;19.43
51053;BME280;37093;37.716;-122.060;2022-10-24T04:53:34;100154.85;;;19.55;19.62
51053;BME280;37093;37.716;-122.060;2022-10-24T04:56:03;100155.12;;;19.75;19.99
51053;BME280;37093;37.716;-122.060;2022-10-24T04:58:36;100156.77;;;19.77;20.10
51053;BME280;37093;37.716;-122.060;2022-10-24T05:01:05;100159.70;;;19.66;20.25
51053;BME280;37093;37.716;-122.060;2022-10-24T05:03:34;100156.09;;;19.61;20.44
51053;BME280;37093;37.716;-122.060;2022-10-24T05:06:02;100155.82;;;19.42;20.47
51053;BME280;37093;37.716;-122.060;2022-10-24T05:08:31;100152.37;;;19.61;20.71
51053;BME280;37093;37.716;-122.060;2022-10-24T05:10:59;100155.84;;;19.39;20.80
51053;BME280;37093;37.716;-122.060;2022-10-24T05:13:28;100157.83;;;19.53;20.96
51053;BME280;37093;37.716;-122.060;2022-10-24T05:15:56;100162.78;;;19.58;21.01
51053;BME280;37093;37.716;-122.060;2022-10-24T05:18:25;100162.54;;;19.70;20.97
51053;BME280;37093;37.716;-122.060;2022-10-24T05:20:55;100161.96;;;19.23;21.09
51053;BME280;37093;37.716;-122.060;2022-10-24T05:23:24;100157.45;;;19.71;21.23
51053;BME280;37093;37.716;-122.060;2022-10-24T05:25:53;100157.79;;;19.68;21.24
51053;BME280;37093;37.716;-122.060;2022-10-24T05:28:21;100163.03;;;19.18;21.30
51053;BME280;37093;37.716;-122.060;2022-10-24T05:30:50;100168.95;;;19.66;21.05
51053;BME280;37093;37.716;-122.060;2022-10-24T05:33:23;100172.89;;;19.42;21.14
51053;BME280;37093;37.716;-122.060;2022-10-24T05:35:52;100174.88;;;19.43;21.21
51053;BME280;37093;37.716;-122.060;2022-10-24T05:38:21;100184.23;;;19.66;21.40
51053;BME280;37093;37.716;-122.060;2022-10-24T05:40:49;100191.48;;;19.38;21.57
51053;BME280;37093;37.716;-122.060;2022-10-24T05:43:18;100194.48;;;19.59;21.16
51053;BME280;37093;37.716;-122.060;2022-10-24T05:45:48;100196.44;;;19.53;21.28
51053;BME280;37093;37.716;-122.060;2022-10-24T05:48:16;100198.97;;;19.42;21.30
51053;BME280;37093;37.716;-122.060;2022-10-24T05:50:44;100205.43;;;18.59;21.77
51053;BME280;37093;37.716;-122.060;2022-10-24T05:53:13;100217.75;;;19.10;21.49
51053;BME280;37093;37.716;-122.060;2022-10-24T05:55:47;100223.10;;;19.14;21.61
51053;BME280;37093;37.716;-122.060;2022-10-24T05:58:14;100219.03;;;19.13;21.75
51053;BME280;37093;37.716;-122.060;2022-10-24T06:00:43;100227.21;;;19.10;21.52
51053;BME280;37093;37.716;-122.060;2022-10-24T06:03:12;100228.67;;;19.06;21.40
51053;BME280;37093;37.716;-122.060;2022-10-24T06:05:40;100224.43;;;19.05;21.55
51053;BME280;37093;37.716;-122.060;2022-10-24T06:08:09;100223.11;;;18.87;21.54
51053;BME280;37093;37.716;-122.060;2022-10-24T06:10:37;100227.42;;;18.76;21.75
51053;BME280;37093;37.716;-122.060;2022-10-24T06:13:06;100234.75;;;18.84;21.95
51053;BME280;37093;37.716;-122.060;2022-10-24T06:15:34;100238.40;;;18.76;22.06
51053;BME280;37093;37.716;-122.060;2022-10-24T06:18:08;100238.24;;;18.77;22.29
51053;BME280;37093;37.716;-122.060;2022-10-24T06:20:37;100238.03;;;18.75;21.96
51053;BME280;37093;37.716;-122.060;2022-10-24T06:23:06;100234.49;;;18.74;21.99
51053;BME280;37093;37.716;-122.060;2022-10-24T06:25:34;100240.72;;;18.82;21.86
51053;BME280;37093;37.716;-122.060;2022-10-24T06:28:03;100244.92;;;18.45;21.52
51053;BME280;37093;37.716;-122.060;2022-10-24T06:30:31;100245.13;;;18.56;21.54
51053;BME280;37093;37.716;-122.060;2022-10-24T06:33:00;100251.38;;;18.68;21.56
51053;BME280;37093;37.716;-122.060;2022-10-24T06:35:29;100260.31;;;18.47;21.56
51053;BME280;37093;37.716;-122.060;2022-10-24T06:37:57;100261.74;;;18.30;21.63
51053;BME280;37093;37.716;-122.060;2022-10-24T06:40:31;100263.75;;;18.19;21.54
51053;BME280;37093;37.716;-122.060;2022-10-24T06:43:00;100263.78;;;18.18;21.67
51053;BME280;37093;37.716;-122.060;2022-10-24T06:45:28;100270.41;;;18.17;21.55
51053;BME280;37093;37.716;-122.060;2022-10-24T06:47:57;100275.84;;;18.05;21.83
51053;BME280;37093;37.716;-122.060;2022-10-24T06:50:25;100272.99;;;17.51;22.13
51053;BME280;37093;37.716;-122.060;2022-10-24T06:52:54;100266.32;;;17.64;22.38
51053;BME280;37093;37.716;-122.060;2022-10-24T06:55:22;100270.91;;;17.57;22.22
51053;BME280;37093;37.716;-122.060;2022-10-24T06:57:53;100271.27;;;18.15;21.90
51053;BME280;37093;37.716;-122.060;2022-10-24T07:01:16;100279.41;;;16.69;21.78
51053;BME280;37093;37.716;-122.060;2022-10-24T07:03:46;100280.65;;;16.84;20.76
51053;BME280;37093;37.716;-122.060;2022-10-24T07:06:16;100281.69;;;19.01;19.69
51053;BME280;37093;37.716;-122.060;2022-10-24T07:08:46;100280.61;;;18.98;19.58
51053;BME280;37093;37.716;-122.060;2022-10-24T07:11:14;100283.38;;;18.92;20.05
51053;BME280;37093;37.716;-122.060;2022-10-24T07:13:43;100276.94;;;18.56;20.42
51053;BME280;37093;37.716;-122.060;2022-10-24T07:16:12;100273.35;;;18.31;20.79
51053;BME280;37093;37.716;-122.060;2022-10-24T07:18:40;100281.14;;;18.49;20.86
51053;BME280;37093;37.716;-122.060;2022-10-24T07:21:15;100276.30;;;17.99;21.22
51053;BME280;37093;37.716;-122.060;2022-10-24T07:23:44;100275.86;;;18.15;21.41
51053;BME280;37093;37.716;-122.060;2022-10-24T07:26:14;100276.56;;;18.00;21.57
51053;BME280;37093;37.716;-122.060;2022-10-24T07:28:43;100270.84;;;18.13;21.80
51053;BME280;37093;37.716;-122.060;2022-10-24T07:31:15;100263.58;;;18.07;21.69
51053;BME280;37093;37.716;-122.060;2022-10-24T07:33:44;100258.72;;;18.35;21.67
51053;BME280;37093;37.716;-122.060;2022-10-24T07:36:15;100254.31;;;18.10;21.77
51053;BME280;37093;37.716;-122.060;2022-10-24T07:38:44;100242.44;;;18.39;21.63
51053;BME280;37093;37.716;-122.060;2022-10-24T07:41:12;100236.75;;;18.27;21.80
51053;BME280;37093;37.716;-122.060;2022-10-24T07:43:41;100233.36;;;17.97;21.89
51053;BME280;37093;37.716;-122.060;2022-10-24T07:46:11;100237.11;;;18.28;21.97
51053;BME280;37093;37.716;-122.060;2022-10-24T07:48:40;100245.27;;;17.97;22.15
51053;BME280;37093;37.716;-122.060;2022-10-24T07:51:10;100247.68;;;17.99;21.90
51053;BME280;37093;37.716;-122.060;2022-10-24T07:53:40;100253.64;;;18.01;21.58
51053;BME280;37093;37.716;-122.060;2022-10-24T07:56:15;100263.63;;;18.21;21.79
51053;BME280;37093;37.716;-122.060;2022-10-24T07:58:44;100269.57;;;17.99;21.89
51053;BME280;37093;37.716;-122.060;2022-10-24T08:01:16;100267.36;;;18.20;22.12
51053;BME280;37093;37.716;-122.060;2022-10-24T08:03:45;100264.20;;;18.12;22.09
51053;BME280;37093;37.716;-122.060;2022-10-24T08:06:16;100270.52;;;17.96;22.03
51053;BME280;37093;37.716;-122.060;2022-10-24T08:08:45;100271.61;;;18.18;21.94
51053;BME280;37093;37.716;-122.060;2022-10-24T08:11:15;100265.71;;;17.92;21.84
51053;BME280;37093;37.716;-122.060;2022-10-24T08:13:44;100266.42;;;18.08;21.87
51053;BME280;37093;37.716;-122.060;2022-10-24T08:16:14;100263.09;;;17.98;22.10
51053;BME280;37093;37.716;-122.060;2022-10-24T08:18:49;100264.24;;;17.99;22.09
51053;BME280;37093;37.716;-122.060;2022-10-24T08:21:20;100263.77;;;17.75;22.21
51053;BME280;37093;37.716;-122.060;2022-10-24T08:23:50;100273.19;;;17.91;22.65
51053;BME280;37093;37.716;-122.060;2022-10-24T08:26:21;100278.70;;;17.56;23.18
51053;BME280;37093;37.716;-122.060;2022-10-24T08:28:50;100281.99;;;17.95;23.05
51053;BME280;37093;37.716;-122.060;2022-10-24T08:31:20;100285.41;;;17.75;24.47
51053;BME280;37093;37.716;-122.060;2022-10-24T08:33:51;100289.93;;;17.77;23.62
51053;BME280;37093;37.716;-122.060;2022-10-24T08:36:23;100290.98;;;17.76;23.94
51053;BME280;37093;37.716;-122.060;2022-10-24T08:38:57;100293.09;;;17.81;23.72
51053;BME280;37093;37.716;-122.060;2022-10-24T08:41:31;100298.12;;;17.85;23.25
51053;BME280;37093;37.716;-122.060;2022-10-24T08:44:02;100299.14;;;17.74;23.00
51053;BME280;37093;37.716;-122.060;2022-10-24T08:46:43;100302.62;;;17.78;22.81
51053;BME280;37093;37.716;-122.060;2022-10-24T08:49:20;100303.07;;;18.02;22.65
51053;BME280;37093;37.716;-122.060;2022-10-24T08:51:54;100297.34;;;17.79;22.52
51053;BME280;37093;37.716;-122.060;2022-10-24T08:54:29;100294.42;;;17.78;22.29
51053;BME280;37093;37.716;-122.060;2022-10-24T08:56:58;100291.71;;;17.75;22.10
51053;BME280;37093;37.716;-122.060;2022-10-24T08:59:29;100293.68;;;17.76;22.40
51053;BME280;37093;37.716;-122.060;2022-10-24T09:02:03;100299.32;;;17.75;23.01
51053;BME280;37093;37.716;-122.060;2022-10-24T09:04:42;100298.55;;;17.73;23.95
51053;BME280;37093;37.716;-122.060;2022-10-24T09:07:17;100296.35;;;17.56;23.98
51053;BME280;37093;37.716;-122.060;2022-10-24T09:09:48;100295.86;;;17.52;23.31
51053;BME280;37093;37.716;-122.060;2022-10-24T09:12:19;100291.81;;;17.11;25.71
51053;BME280;37093;37.716;-122.060;2022-10-24T09:14:53;100294.41;;;17.32;25.53
51053;BME280;37093;37.716;-122.060;2022-10-24T09:17:23;100299.27;;;17.35;26.11
51053;BME280;37093;37.716;-122.060;2022-10-24T09:19:57;100297.12;;;17.15;26.26
51053;BME280;37093;37.716;-122.060;2022-10-24T09:22:29;100305.34;;;17.27;24.98
51053;BME280;37093;37.716;-122.060;2022-10-24T09:25:02;100311.29;;;17.18;24.86
51053;BME280;37093;37.716;-122.060;2022-10-24T09:27:33;100312.35;;;17.62;23.48
51053;BME280;37093;37.716;-122.060;2022-10-24T09:30:03;100323.15;;;17.18;23.42
51053;BME280;37093;37.716;-122.060;2022-10-24T09:32:33;100324.60;;;17.30;23.16
51053;BME280;37093;37.716;-122.060;2022-10-24T09:35:06;100329.40;;;17.12;23.29
51053;BME280;37093;37.716;-122.060;2022-10-24T09:37:42;100336.16;;;17.24;22.66
51053;BME280;37093;37.716;-122.060;2022-10-24T09:40:19;100337.00;;;17.25;22.73
51053;BME280;37093;37.716;-122.060;2022-10-24T09:42:53;100331.47;;;17.15;22.58
51053;BME280;37093;37.716;-122.060;2022-10-24T09:45:36;100328.94;;;17.07;22.55
51053;BME280;37093;37.716;-122.060;2022-10-24T09:48:14;100330.90;;;17.10;22.77
51053;BME280;37093;37.716;-122.060;2022-10-24T09:50:45;100328.42;;;16.83;22.69
51053;BME280;37093;37.716;-122.060;2022-10-24T09:53:23;100331.96;;;17.15;22.80
51053;BME280;37093;37.716;-122.060;2022-10-24T09:55:55;100332.96;;;17.30;23.21
51053;BME280;37093;37.716;-122.060;2022-10-24T09:58:27;100336.83;;;17.64;23.14
51053;BME280;37093;37.716;-122.060;2022-10-24T10:01:00;100337.08;;;17.18;22.75
51053;BME280;37093;37.716;-122.060;2022-10-24T10:03:30;100339.73;;;17.14;22.87
51053;BME280;37093;37.716;-122.060;2022-10-24T10:06:02;100338.42;;;17.53;22.95
51053;BME280;37093;37.716;-122.060;2022-10-24T10:08:32;100343.55;;;17.55;23.82
51053;BME280;37093;37.716;-122.060;2022-10-24T10:11:05;100336.58;;;17.33;23.41
51053;BME280;37093;37.716;-122.060;2022-10-24T10:13:45;100332.31;;;17.33;22.55
51053;BME280;37093;37.716;-122.060;2022-10-24T10:16:21;100331.12;;;17.32;21.59
51053;BME280;37093;37.716;-122.060;2022-10-24T10:18:59;100333.70;;;17.15;20.69
51053;BME280;37093;37.716;-122.060;2022-10-24T10:21:27;100330.34;;;17.13;21.05
51053;BME280;37093;37.716;-122.060;2022-10-24T10:24:25;100328.26;;;17.39;21.60
51053;BME280;37093;37.716;-122.060;2022-10-24T10:26:54;100328.86;;;17.08;22.09
51053;BME280;37093;37.716;-122.060;2022-10-24T10:29:23;100330.33;;;17.02;22.03
51053;BME280;37093;37.716;-122.060;2022-10-24T10:31:59;100330.09;;;16.96;22.22
51053;BME280;37093;37.716;-122.060;2022-10-24T10:34:35;100326.16;;;16.76;22.76
51053;BME280;37093;37.716;-122.060;2022-10-24T10:37:22;100325.22;;;16.90;22.65
51053;BME280;37093;37.716;-122.060;2022-10-24T10:40:03;100323.72;;;16.91;22.36
51053;BME280;37093;37.716;-122.060;2022-10-24T10:42:47;100321.03;;;16.72;22.26
51053;BME280;37093;37.716;-122.060;2022-10-24T10:45:31;100326.34;;;16.71;22.39
